Amawalk, New York
Current Conditions -  °F | °C
As of 8:56 AM on Friday 28 Nov 2014 (Local Time) from KHPN Reporting Station
Few Clouds Few Clouds  
Wind Chill: 21°   Ceiling: Unl
Heat Index: 31°   Visibility: 10mi
Dew Point: 22°   Wind: 13mph
Humidity: 69%   Direction: 300°WNW
Pressure: 30.13"   Gusts: NA
Location:  41.29°N, 73.77°W
Report Text: KHPN 281356Z 30011KT 10SM FEW025 M01/M06 A3013 RMK AO2 SLP212 T10061056
Loading
Personal Weather Stations






























Interactive Weather Map New forecast layout! Learn more

10-Day Weather Forecast

Advertisements
Track Severe Weather on mobile